createdAt,value
2023-05-22T00:00:09.415Z,100537.09
2023-05-22T00:00:35.912Z,100538.72
2023-05-22T00:01:02.307Z,100539.92
2023-05-22T00:01:26.817Z,100539.38
2023-05-22T00:01:49.618Z,100538.05
2023-05-22T00:02:11.898Z,100540.81
2023-05-22T00:02:39.085Z,100537.35
2023-05-22T00:03:03.724Z,100541.82
2023-05-22T00:03:25.697Z,100538.07
2023-05-22T00:03:48.737Z,100539.57
2023-05-22T00:04:13.530Z,100536.27
2023-05-22T00:04:35.399Z,100539.00
2023-05-22T00:04:58.940Z,100537.81
2023-05-22T00:05:21.480Z,100535.78
2023-05-22T00:05:43.422Z,100538.75
2023-05-22T00:06:06.270Z,100535.94
2023-05-22T00:06:28.117Z,100535.20
2023-05-22T00:06:50.065Z,100538.03
2023-05-22T00:07:11.938Z,100536.51
2023-05-22T00:07:33.880Z,100536.64
2023-05-22T00:07:55.898Z,100537.30
2023-05-22T00:08:17.752Z,100536.73
2023-05-22T00:08:39.503Z,100535.99
2023-05-22T00:09:01.278Z,100539.54
2023-05-22T00:09:24.549Z,100535.80
2023-05-22T00:09:46.834Z,100534.60
2023-05-22T00:10:08.871Z,100536.77
2023-05-22T00:10:31.326Z,100534.50
2023-05-22T00:10:53.368Z,100537.95
2023-05-22T00:11:15.162Z,100538.80
2023-05-22T00:11:37.053Z,100536.37
2023-05-22T00:11:59.076Z,100537.71
2023-05-22T00:12:21.067Z,100536.21
2023-05-22T00:12:42.952Z,100536.63
2023-05-22T00:13:05.043Z,100535.64
2023-05-22T00:13:26.858Z,100531.11
2023-05-22T00:13:48.715Z,100535.20
2023-05-22T00:14:10.602Z,100535.50
2023-05-22T00:14:32.338Z,100536.44
2023-05-22T00:14:54.174Z,100536.88
2023-05-22T00:15:16.070Z,100539.23
2023-05-22T00:15:37.945Z,100534.08
2023-05-22T00:15:59.688Z,100534.33
2023-05-22T00:16:21.965Z,100534.53
2023-05-22T00:16:44.081Z,100535.70
2023-05-22T00:17:05.898Z,100532.16
2023-05-22T00:17:30.913Z,100530.84
2023-05-22T00:17:54.609Z,100535.20
2023-05-22T00:18:16.617Z,100535.54
2023-05-22T00:18:38.458Z,100534.70
2023-05-22T00:19:01.268Z,100533.99
2023-05-22T00:19:23.398Z,100534.39
2023-05-22T00:19:45.346Z,100531.02
2023-05-22T00:20:10.983Z,100534.82
2023-05-22T00:20:33.007Z,100532.73
2023-05-22T00:20:54.773Z,100534.00
2023-05-22T00:21:17.296Z,100533.31
2023-05-22T00:21:39.891Z,100531.09
2023-05-22T00:22:01.782Z,100533.48
2023-05-22T00:22:23.665Z,100532.42
2023-05-22T00:22:45.795Z,100531.56
2023-05-22T00:23:10.871Z,100535.64
2023-05-22T00:23:34.955Z,100531.20
2023-05-22T00:23:57.288Z,100529.83
2023-05-22T00:24:19.953Z,100531.10
2023-05-22T00:24:41.841Z,100528.55
2023-05-22T00:25:04.345Z,100531.12
2023-05-22T00:25:26.103Z,100528.90
2023-05-22T00:25:48.014Z,100527.54
2023-05-22T00:26:09.896Z,100526.71
2023-05-22T00:26:31.854Z,100528.59
2023-05-22T00:26:53.821Z,100526.19
2023-05-22T00:27:15.663Z,100530.96
2023-05-22T00:27:37.476Z,100528.19
2023-05-22T00:27:59.207Z,100530.07
2023-05-22T00:28:21.428Z,100530.17
2023-05-22T00:28:43.411Z,100529.77
2023-05-22T00:29:06.152Z,100532.14
2023-05-22T00:29:28.323Z,100531.02
2023-05-22T00:29:51.753Z,100533.73
2023-05-22T00:30:14.056Z,100536.23
2023-05-22T00:30:36.995Z,100534.73
2023-05-22T00:30:59.144Z,100534.58
2023-05-22T00:31:20.876Z,100534.01
2023-05-22T00:31:43.109Z,100538.05
2023-05-22T00:32:05.870Z,100534.27
2023-05-22T00:32:28.248Z,100535.55
2023-05-22T00:32:50.154Z,100535.48
2023-05-22T00:33:12.704Z,100535.54
2023-05-22T00:33:34.692Z,100533.98
2023-05-22T00:33:56.536Z,100536.13
2023-05-22T00:34:19.326Z,100538.36
2023-05-22T00:34:41.186Z,100536.61
2023-05-22T00:35:03.656Z,100534.60
2023-05-22T00:35:25.969Z,100533.80
2023-05-22T00:35:47.960Z,100533.55
2023-05-22T00:36:09.753Z,100534.25
2023-05-22T00:36:31.739Z,100534.09
2023-05-22T00:36:55.076Z,100532.77
2023-05-22T00:37:16.935Z,100532.64
2023-05-22T00:37:38.831Z,100532.68
2023-05-22T00:38:03.161Z,100531.39
2023-05-22T00:38:32.435Z,100530.52
2023-05-22T00:38:54.292Z,100531.54
2023-05-22T00:39:16.022Z,100529.26
2023-05-22T00:39:38.287Z,100529.50
2023-05-22T00:40:00.264Z,100527.35
2023-05-22T00:40:22.254Z,100525.86
2023-05-22T00:40:44.144Z,100524.40
2023-05-22T00:41:06.751Z,100524.88
2023-05-22T00:41:28.736Z,100522.48
2023-05-22T00:41:50.638Z,100523.30
2023-05-22T00:42:12.920Z,100524.11
2023-05-22T00:42:34.808Z,100523.77
2023-05-22T00:42:56.692Z,100523.75
2023-05-22T00:43:18.477Z,100523.42
2023-05-22T00:43:40.572Z,100520.25
2023-05-22T00:44:03.098Z,100521.28
2023-05-22T00:44:25.082Z,100524.25
2023-05-22T00:44:48.584Z,100520.64
2023-05-22T00:45:13.611Z,100519.36
2023-05-22T00:45:35.424Z,100519.11
2023-05-22T00:45:57.327Z,100520.48
2023-05-22T00:46:23.089Z,100521.06
2023-05-22T00:46:45.211Z,100522.96
2023-05-22T00:47:08.165Z,100521.52
2023-05-22T00:47:30.599Z,100520.45
2023-05-22T00:47:52.595Z,100521.33
2023-05-22T00:48:15.793Z,100519.35
2023-05-22T00:48:37.683Z,100520.83
2023-05-22T00:48:59.589Z,100523.01
2023-05-22T00:49:22.167Z,100522.02
2023-05-22T00:49:44.154Z,100523.06
2023-05-22T00:50:06.768Z,100525.19
2023-05-22T00:50:28.643Z,100523.22
2023-05-22T00:50:50.886Z,100524.52
2023-05-22T00:51:12.621Z,100528.58
2023-05-22T00:51:34.509Z,100527.96
2023-05-22T00:51:56.422Z,100525.59
2023-05-22T00:52:18.258Z,100526.04
2023-05-22T00:52:41.498Z,100527.04
2023-05-22T00:53:03.903Z,100529.72
2023-05-22T00:53:26.278Z,100524.90
2023-05-22T00:53:48.900Z,100526.15
2023-05-22T00:54:10.926Z,100527.16
2023-05-22T00:54:32.936Z,100528.05
2023-05-22T00:54:54.990Z,100529.10
2023-05-22T00:55:17.160Z,100528.69
2023-05-22T00:55:39.049Z,100529.77
2023-05-22T00:56:01.748Z,100529.82
2023-05-22T00:56:24.457Z,100530.73
2023-05-22T00:56:46.753Z,100531.05
2023-05-22T00:57:09.094Z,100531.59
2023-05-22T00:57:30.824Z,100531.81
2023-05-22T00:57:52.655Z,100532.19
2023-05-22T00:58:16.143Z,100532.14
2023-05-22T00:58:38.155Z,100530.29
2023-05-22T00:59:00.021Z,100534.04
2023-05-22T00:59:22.002Z,100534.95
2023-05-22T00:59:44.148Z,100533.33
2023-05-22T01:00:06.802Z,100531.16
2023-05-22T01:00:29.608Z,100533.17
2023-05-22T01:00:51.699Z,100530.87
2023-05-22T01:01:13.591Z,100529.96
2023-05-22T01:01:37.870Z,100534.16
2023-05-22T01:01:59.876Z,100533.93
2023-05-22T01:02:21.915Z,100534.38
2023-05-22T01:02:44.501Z,100534.83
2023-05-22T01:03:09.966Z,100534.77
2023-05-22T01:03:32.411Z,100531.91
2023-05-22T01:03:55.945Z,100531.48
2023-05-22T01:04:18.706Z,100529.17
2023-05-22T01:04:40.694Z,100531.58
2023-05-22T01:05:04.423Z,100532.77
2023-05-22T01:05:27.022Z,100531.17
2023-05-22T01:05:48.902Z,100529.85
2023-05-22T01:06:11.948Z,100531.23
2023-05-22T01:06:34.552Z,100532.75
2023-05-22T01:06:56.514Z,100531.98
2023-05-22T01:07:18.247Z,100530.83
2023-05-22T01:07:40.394Z,100530.36
2023-05-22T01:08:02.375Z,100530.14
2023-05-22T01:08:24.278Z,100529.20
2023-05-22T01:08:47.791Z,100528.56
2023-05-22T01:09:09.989Z,100527.89
2023-05-22T01:09:32.075Z,100528.71
2023-05-22T01:09:54.069Z,100527.23
2023-05-22T01:10:16.150Z,100528.94
2023-05-22T01:10:38.919Z,100529.30
2023-05-22T01:11:02.482Z,100529.70
2023-05-22T01:11:47.181Z,100530.73
2023-05-22T01:12:13.364Z,100531.61
2023-05-22T01:12:38.416Z,100528.33
2023-05-22T01:13:00.307Z,100530.35
2023-05-22T01:13:24.877Z,100531.11
2023-05-22T01:13:51.137Z,100529.10
2023-05-22T01:14:15.305Z,100528.80
2023-05-22T01:14:37.465Z,100531.38
2023-05-22T01:15:00.882Z,100529.52
2023-05-22T01:15:41.205Z,100530.14
2023-05-22T01:16:12.242Z,100531.73
2023-05-22T01:16:35.340Z,100528.12
2023-05-22T01:17:23.756Z,100529.52
2023-05-22T01:18:04.617Z,100529.61
2023-05-22T01:18:31.569Z,100530.09
2023-05-22T01:19:16.376Z,100533.70
2023-05-22T01:19:54.256Z,100533.16
2023-05-22T01:20:29.390Z,100529.86
2023-05-22T01:20:58.432Z,100532.27
2023-05-22T01:21:24.815Z,100530.28
2023-05-22T01:21:48.143Z,100530.36
2023-05-22T01:22:16.778Z,100532.36
2023-05-22T01:22:51.449Z,100528.56
2023-05-22T01:23:31.861Z,100528.23
2023-05-22T01:24:14.033Z,100530.16
2023-05-22T01:24:44.904Z,100528.27
2023-05-22T01:25:09.431Z,100532.55
2023-05-22T01:25:37.750Z,100532.29
2023-05-22T01:26:05.915Z,100532.45
2023-05-22T01:26:27.759Z,100531.54
2023-05-22T01:27:08.496Z,100533.52
2023-05-22T01:27:35.513Z,100535.56
2023-05-22T01:28:02.974Z,100535.05
2023-05-22T01:28:30.810Z,100532.26
2023-05-22T01:29:11.613Z,100534.00
2023-05-22T01:29:54.906Z,100534.22
2023-05-22T01:30:21.663Z,100530.25
2023-05-22T01:30:43.398Z,100533.05
2023-05-22T01:31:11.477Z,100529.13
2023-05-22T01:31:33.381Z,100531.45
2023-05-22T01:31:55.656Z,100532.67
2023-05-22T01:32:21.118Z,100530.61
2023-05-22T01:32:43.402Z,100533.41
2023-05-22T01:33:05.592Z,100535.02
2023-05-22T01:33:28.985Z,100531.27
2023-05-22T01:34:01.103Z,100537.12
2023-05-22T01:34:22.928Z,100534.11
2023-05-22T01:34:45.775Z,100534.67
2023-05-22T01:35:08.615Z,100532.20
2023-05-22T01:35:30.632Z,100532.41
2023-05-22T01:35:55.696Z,100531.91
2023-05-22T01:36:20.256Z,100533.59
2023-05-22T01:36:42.054Z,100534.53
2023-05-22T01:37:04.418Z,100534.98
2023-05-22T01:37:26.423Z,100532.17
2023-05-22T01:37:48.327Z,100532.34
2023-05-22T01:38:10.283Z,100531.96
2023-05-22T01:38:32.415Z,100532.95
2023-05-22T01:38:54.570Z,100531.52
2023-05-22T01:39:17.169Z,100527.45
2023-05-22T01:39:40.724Z,100530.70
2023-05-22T01:40:04.253Z,100530.72
2023-05-22T01:40:26.225Z,100531.30
2023-05-22T01:40:48.202Z,100529.39
2023-05-22T01:41:10.092Z,100533.39
2023-05-22T01:41:34.834Z,100528.70
2023-05-22T01:41:56.734Z,100530.73
2023-05-22T01:42:19.126Z,100526.21
2023-05-22T01:42:41.515Z,100527.21
2023-05-22T01:43:03.410Z,100528.75
2023-05-22T01:43:25.185Z,100529.81
2023-05-22T01:43:46.929Z,100528.41
2023-05-22T01:44:08.859Z,100529.28
2023-05-22T01:44:30.756Z,100529.08
2023-05-22T01:44:52.632Z,100529.27
2023-05-22T01:45:14.528Z,100530.78
2023-05-22T01:45:36.369Z,100531.06
2023-05-22T01:45:58.271Z,100530.89
2023-05-22T01:46:20.265Z,100530.92
2023-05-22T01:46:42.991Z,100533.27
2023-05-22T01:47:06.101Z,100529.61
2023-05-22T01:47:28.004Z,100531.58
2023-05-22T01:47:50.231Z,100533.92
2023-05-22T01:48:12.887Z,100532.60
2023-05-22T01:48:35.796Z,100529.92
2023-05-22T01:48:58.093Z,100534.06
2023-05-22T01:49:19.982Z,100534.96
2023-05-22T01:49:42.279Z,100535.41
2023-05-22T01:50:05.879Z,100535.13
2023-05-22T01:50:28.197Z,100535.70
2023-05-22T01:50:50.852Z,100536.40
2023-05-22T01:51:18.625Z,100536.96
2023-05-22T01:51:53.741Z,100529.08
2023-05-22T01:52:19.093Z,100533.70
2023-05-22T01:52:56.318Z,100532.73
2023-05-22T01:53:27.184Z,100530.02
2023-05-22T01:54:03.516Z,100531.63
2023-05-22T01:54:43.928Z,100529.08
2023-05-22T01:55:06.929Z,100531.78
2023-05-22T01:55:40.540Z,100532.96
2023-05-22T01:56:09.902Z,100528.95
2023-05-22T01:56:34.915Z,100528.98
2023-05-22T01:57:02.937Z,100525.45
2023-05-22T01:57:27.734Z,100527.95
2023-05-22T01:57:56.292Z,100526.19
2023-05-22T01:58:18.613Z,100527.70
2023-05-22T01:58:52.743Z,100523.63
2023-05-22T01:59:23.606Z,100526.77
2023-05-22T01:59:56.436Z,100529.70
2023-05-22T02:00:18.659Z,100525.23
2023-05-22T02:00:41.771Z,100530.12
2023-05-22T02:01:03.823Z,100524.55
2023-05-22T02:01:26.109Z,100529.94
2023-05-22T02:01:48.439Z,100527.65
2023-05-22T02:02:10.768Z,100530.27
2023-05-22T02:02:33.170Z,100529.48
2023-05-22T02:02:59.139Z,100533.79
2023-05-22T02:03:22.207Z,100531.79
2023-05-22T02:03:45.178Z,100534.77
2023-05-22T02:04:07.119Z,100532.77
2023-05-22T02:04:30.534Z,100531.48
2023-05-22T02:04:53.451Z,100533.02
2023-05-22T02:05:15.810Z,100531.55
2023-05-22T02:05:38.963Z,100533.60
2023-05-22T02:06:02.371Z,100532.48
2023-05-22T02:06:26.115Z,100530.95
2023-05-22T02:06:47.866Z,100532.61
2023-05-22T02:07:12.165Z,100534.76
2023-05-22T02:07:34.726Z,100532.09
2023-05-22T02:07:56.747Z,100532.02
2023-05-22T02:08:18.712Z,100531.04
2023-05-22T02:08:41.641Z,100532.53
2023-05-22T02:09:05.037Z,100531.39
2023-05-22T02:09:28.292Z,100530.05
2023-05-22T02:09:50.145Z,100530.15
2023-05-22T02:10:11.967Z,100530.52
2023-05-22T02:10:33.742Z,100528.08
2023-05-22T02:10:56.413Z,100529.02
2023-05-22T02:11:18.198Z,100526.05
2023-05-22T02:11:40.091Z,100523.80
2023-05-22T02:12:02.001Z,100527.60
2023-05-22T02:12:24.897Z,100523.95
2023-05-22T02:12:46.877Z,100525.64
2023-05-22T02:13:08.960Z,100525.27
2023-05-22T02:13:31.079Z,100523.10
2023-05-22T02:13:53.657Z,100525.08
2023-05-22T02:14:16.379Z,100523.10
2023-05-22T02:14:38.362Z,100522.84
2023-05-22T02:15:00.494Z,100524.78
2023-05-22T02:15:22.838Z,100524.31
2023-05-22T02:15:48.072Z,100522.59
2023-05-22T02:16:09.926Z,100523.19
2023-05-22T02:16:31.794Z,100521.55
2023-05-22T02:16:53.662Z,100520.88
2023-05-22T02:17:18.308Z,100519.89
2023-05-22T02:17:45.611Z,100519.83
2023-05-22T02:18:13.091Z,100524.75
2023-05-22T02:18:35.017Z,100520.51
2023-05-22T02:19:06.452Z,100519.23
2023-05-22T02:19:28.904Z,100522.09
2023-05-22T02:19:51.414Z,100521.64
2023-05-22T02:20:16.674Z,100517.64
2023-05-22T02:20:39.038Z,100523.55
2023-05-22T02:21:00.969Z,100521.20
2023-05-22T02:21:22.844Z,100519.06
2023-05-22T02:21:44.832Z,100523.74
2023-05-22T02:22:06.571Z,100520.50
2023-05-22T02:22:31.474Z,100526.02
2023-05-22T02:22:53.257Z,100521.95
2023-05-22T02:23:15.221Z,100521.98
2023-05-22T02:23:38.157Z,100523.05
2023-05-22T02:24:00.049Z,100523.04
2023-05-22T02:24:23.735Z,100523.46
2023-05-22T02:24:46.736Z,100528.05
2023-05-22T02:25:14.228Z,100524.61
2023-05-22T02:25:36.617Z,100523.79
2023-05-22T02:25:58.790Z,100524.33
2023-05-22T02:26:21.692Z,100525.59
2023-05-22T02:26:44.534Z,100524.29
2023-05-22T02:27:06.518Z,100524.89
2023-05-22T02:27:28.481Z,100522.95
2023-05-22T02:27:50.434Z,100523.02
2023-05-22T02:28:12.351Z,100521.70
2023-05-22T02:28:34.125Z,100520.23
2023-05-22T02:28:55.932Z,100521.35
2023-05-22T02:29:17.706Z,100522.84
2023-05-22T02:29:39.531Z,100516.81
2023-05-22T02:30:01.312Z,100517.46
2023-05-22T02:30:23.261Z,100521.63
2023-05-22T02:30:45.867Z,100519.70
2023-05-22T02:31:08.379Z,100520.73
2023-05-22T02:31:30.147Z,100519.45
2023-05-22T02:31:53.678Z,100519.69
2023-05-22T02:32:15.476Z,100517.52
2023-05-22T02:32:37.702Z,100518.60
2023-05-22T02:33:00.580Z,100517.89
2023-05-22T02:33:22.436Z,100518.62
2023-05-22T02:33:45.054Z,100518.83
2023-05-22T02:34:06.998Z,100518.79
2023-05-22T02:34:29.849Z,100518.92
2023-05-22T02:34:54.647Z,100518.20
2023-05-22T02:35:16.896Z,100519.63
2023-05-22T02:35:40.111Z,100519.20
2023-05-22T02:36:02.310Z,100517.52
2023-05-22T02:36:26.313Z,100520.63
2023-05-22T02:36:51.204Z,100518.45
2023-05-22T02:37:13.487Z,100517.17
2023-05-22T02:37:36.220Z,100519.02
2023-05-22T02:37:58.310Z,100515.86
2023-05-22T02:38:20.581Z,100517.83
2023-05-22T02:38:42.469Z,100518.56
2023-05-22T02:39:05.479Z,100519.55
2023-05-22T02:39:27.436Z,100519.55
2023-05-22T02:39:49.457Z,100521.06
2023-05-22T02:40:12.672Z,100518.09
2023-05-22T02:40:34.564Z,100520.84
2023-05-22T02:40:56.457Z,100517.23
2023-05-22T02:41:18.333Z,100518.86
2023-05-22T02:41:40.118Z,100520.60
2023-05-22T02:42:02.113Z,100518.77
2023-05-22T02:42:23.994Z,100520.54
2023-05-22T02:42:45.808Z,100519.86
2023-05-22T02:43:07.984Z,100521.03
2023-05-22T02:43:30.060Z,100520.36
2023-05-22T02:43:51.948Z,100520.73
2023-05-22T02:44:13.723Z,100521.84
2023-05-22T02:44:35.519Z,100521.19
2023-05-22T02:44:57.405Z,100520.46
2023-05-22T02:45:19.525Z,100519.63
2023-05-22T02:45:41.382Z,100519.31
2023-05-22T02:46:03.193Z,100520.76
2023-05-22T02:46:25.484Z,100519.20
2023-05-22T02:46:47.954Z,100522.80
2023-05-22T02:47:10.060Z,100521.66
2023-05-22T02:47:31.995Z,100522.09
2023-05-22T02:47:53.866Z,100521.67
2023-05-22T02:48:17.017Z,100521.01
2023-05-22T02:48:39.037Z,100521.30
2023-05-22T02:49:00.781Z,100523.15
2023-05-22T02:49:23.021Z,100525.13
2023-05-22T02:49:45.320Z,100524.49
2023-05-22T02:50:07.761Z,100524.69
2023-05-22T02:50:29.794Z,100524.40
2023-05-22T02:50:51.683Z,100526.23
2023-05-22T02:51:13.459Z,100523.98
2023-05-22T02:51:35.355Z,100521.31
2023-05-22T02:51:57.260Z,100525.83
2023-05-22T02:52:19.331Z,100528.91
2023-05-22T02:52:41.223Z,100523.48
2023-05-22T02:53:03.112Z,100525.98
2023-05-22T02:53:24.984Z,100523.75
2023-05-22T02:53:46.881Z,100527.20
2023-05-22T02:54:09.174Z,100526.86
2023-05-22T02:54:30.896Z,100530.48
2023-05-22T02:54:52.756Z,100527.88
2023-05-22T02:55:15.050Z,100526.52
2023-05-22T02:55:36.803Z,100528.20
2023-05-22T02:55:59.168Z,100528.30
2023-05-22T02:56:22.186Z,100530.86
2023-05-22T02:56:43.988Z,100529.67
2023-05-22T02:57:05.978Z,100529.91
2023-05-22T02:57:27.800Z,100529.58
2023-05-22T02:57:49.677Z,100529.86
2023-05-22T02:58:12.011Z,100528.39
2023-05-22T02:58:33.990Z,100526.09
2023-05-22T02:58:57.179Z,100530.32
2023-05-22T02:59:18.999Z,100526.15
2023-05-22T02:59:40.814Z,100527.72
2023-05-22T03:00:03.789Z,100525.21
2023-05-22T03:00:25.956Z,100525.18
2023-05-22T03:00:49.694Z,100526.95
2023-05-22T03:01:11.615Z,100525.77
2023-05-22T03:01:34.746Z,100524.25
2023-05-22T03:01:56.782Z,100524.61
2023-05-22T03:02:20.093Z,100529.29
2023-05-22T03:02:43.276Z,100523.62
2023-05-22T03:03:05.409Z,100523.52
2023-05-22T03:03:29.602Z,100525.31
2023-05-22T03:03:51.504Z,100523.96
2023-05-22T03:04:14.253Z,100526.11
2023-05-22T03:04:38.745Z,100526.59
2023-05-22T03:05:00.682Z,100528.19
2023-05-22T03:05:22.546Z,100526.83
2023-05-22T03:05:46.708Z,100525.95
2023-05-22T03:06:09.053Z,100528.52
2023-05-22T03:06:32.362Z,100527.02
2023-05-22T03:06:55.004Z,100528.96
2023-05-22T03:07:17.130Z,100528.06
2023-05-22T03:07:40.158Z,100527.73
2023-05-22T03:08:02.096Z,100528.51
2023-05-22T03:08:24.625Z,100528.76
2023-05-22T03:08:48.676Z,100532.39
2023-05-22T03:09:10.776Z,100529.98
2023-05-22T03:09:32.712Z,100531.23
2023-05-22T03:09:54.597Z,100529.10
2023-05-22T03:10:16.342Z,100535.47
2023-05-22T03:10:41.068Z,100531.39
2023-05-22T03:11:03.585Z,100530.89
2023-05-22T03:11:25.929Z,100530.35
2023-05-22T03:11:47.920Z,100533.64
2023-05-22T03:12:10.441Z,100534.42
2023-05-22T03:12:32.416Z,100536.03
2023-05-22T03:12:54.407Z,100538.43
2023-05-22T03:13:16.389Z,100538.65
2023-05-22T03:13:38.269Z,100536.73
2023-05-22T03:14:00.157Z,100539.06
2023-05-22T03:14:21.907Z,100540.20
2023-05-22T03:14:44.316Z,100541.89
2023-05-22T03:15:06.653Z,100538.17
2023-05-22T03:15:29.141Z,100541.70
2023-05-22T03:15:53.112Z,100540.40
2023-05-22T03:16:15.665Z,100542.67
2023-05-22T03:16:39.420Z,100539.38
2023-05-22T03:17:01.444Z,100538.47
2023-05-22T03:17:23.383Z,100539.08
2023-05-22T03:17:45.834Z,100543.34
2023-05-22T03:18:08.045Z,100541.38
2023-05-22T03:18:30.065Z,100542.14
2023-05-22T03:18:53.739Z,100541.61
2023-05-22T03:19:16.126Z,100544.00
2023-05-22T03:19:38.186Z,100540.48
2023-05-22T03:20:00.286Z,100541.84
2023-05-22T03:20:22.062Z,100540.33
2023-05-22T03:20:44.250Z,100540.05
2023-05-22T03:21:06.752Z,100542.23
2023-05-22T03:21:28.638Z,100542.16
2023-05-22T03:21:50.728Z,100541.89
2023-05-22T03:22:12.512Z,100543.55
2023-05-22T03:22:34.465Z,100540.84
2023-05-22T03:22:56.428Z,100541.34
2023-05-22T03:23:20.957Z,100541.17
2023-05-22T03:23:44.778Z,100543.10
2023-05-22T03:24:06.934Z,100543.60
2023-05-22T03:24:28.945Z,100540.96
2023-05-22T03:24:51.201Z,100542.90
2023-05-22T03:25:13.341Z,100541.83
2023-05-22T03:25:35.123Z,100542.94
2023-05-22T03:25:57.311Z,100544.86
2023-05-22T03:26:22.273Z,100543.20
2023-05-22T03:26:44.174Z,100540.79
2023-05-22T03:27:14.733Z,100539.59
2023-05-22T03:27:36.748Z,100540.74
2023-05-22T03:27:59.329Z,100535.41
2023-05-22T03:28:21.936Z,100536.98
2023-05-22T03:28:44.354Z,100534.23
2023-05-22T03:29:06.753Z,100532.32
2023-05-22T03:29:28.816Z,100536.45
2023-05-22T03:29:50.560Z,100534.56
2023-05-22T03:30:13.406Z,100533.66
2023-05-22T03:30:37.081Z,100535.02
2023-05-22T03:31:13.343Z,100537.45
2023-05-22T03:31:49.921Z,100534.61
2023-05-22T03:32:11.844Z,100534.58
2023-05-22T03:32:37.631Z,100533.64
2023-05-22T03:33:00.361Z,100535.90
2023-05-22T03:33:22.794Z,100534.62
2023-05-22T03:33:44.762Z,100534.20
2023-05-22T03:34:07.813Z,100530.92
2023-05-22T03:34:32.485Z,100536.98
2023-05-22T03:34:55.288Z,100533.87
2023-05-22T03:35:19.959Z,100531.74
2023-05-22T03:35:43.924Z,100532.29
2023-05-22T03:36:06.360Z,100532.59
2023-05-22T03:36:29.448Z,100532.10
2023-05-22T03:36:52.586Z,100529.60
2023-05-22T03:37:14.474Z,100528.25
2023-05-22T03:37:36.244Z,100529.91
2023-05-22T03:37:58.553Z,100529.76
2023-05-22T03:38:20.436Z,100529.30
2023-05-22T03:38:42.431Z,100530.34
2023-05-22T03:39:04.341Z,100528.33
2023-05-22T03:39:28.795Z,100528.13
2023-05-22T03:39:54.521Z,100527.43
2023-05-22T03:40:20.823Z,100529.16
2023-05-22T03:40:43.221Z,100531.96
2023-05-22T03:41:05.828Z,100531.34
2023-05-22T03:41:27.706Z,100530.96
2023-05-22T03:41:50.124Z,100530.30
2023-05-22T03:42:13.660Z,100531.63
2023-05-22T03:42:36.365Z,100527.54
2023-05-22T03:42:58.321Z,100527.41
2023-05-22T03:43:20.109Z,100529.15
2023-05-22T03:43:44.762Z,100530.30
2023-05-22T03:44:07.252Z,100528.08
2023-05-22T03:44:29.079Z,100529.14
2023-05-22T03:44:51.154Z,100527.52
2023-05-22T03:45:13.324Z,100526.57
2023-05-22T03:45:36.100Z,100530.07
2023-05-22T03:45:59.592Z,100527.23
2023-05-22T03:46:21.775Z,100527.20
2023-05-22T03:46:44.285Z,100526.76
2023-05-22T03:47:06.127Z,100528.14
2023-05-22T03:47:28.033Z,100526.23
2023-05-22T03:47:50.148Z,100527.25
2023-05-22T03:48:12.812Z,100524.36
2023-05-22T03:48:35.009Z,100525.69
2023-05-22T03:48:56.933Z,100524.86
2023-05-22T03:49:20.011Z,100525.04
2023-05-22T03:49:41.896Z,100522.36
2023-05-22T03:50:03.811Z,100524.47
2023-05-22T03:50:25.791Z,100525.77
2023-05-22T03:50:47.591Z,100524.42
2023-05-22T03:51:09.369Z,100524.05
2023-05-22T03:51:31.787Z,100521.95
2023-05-22T03:51:53.657Z,100523.84
2023-05-22T03:52:16.641Z,100519.60
2023-05-22T03:52:38.465Z,100521.00
2023-05-22T03:53:01.350Z,100519.52
2023-05-22T03:53:23.201Z,100524.90
2023-05-22T03:53:45.010Z,100518.05
2023-05-22T03:54:06.898Z,100518.46
2023-05-22T03:54:28.781Z,100517.30
2023-05-22T03:54:51.890Z,100517.84
2023-05-22T03:55:13.656Z,100518.20
2023-05-22T03:55:36.184Z,100519.14
2023-05-22T03:55:58.370Z,100521.66
2023-05-22T03:56:20.108Z,100518.38
2023-05-22T03:56:43.575Z,100516.94
2023-05-22T03:57:05.779Z,100517.31
2023-05-22T03:57:27.659Z,100519.25
2023-05-22T03:57:51.174Z,100516.53
2023-05-22T03:58:13.165Z,100516.10
2023-05-22T03:58:34.948Z,100518.48
2023-05-22T03:58:56.894Z,100516.30
2023-05-22T03:59:18.824Z,100519.11
2023-05-22T03:59:40.824Z,100515.82
2023-05-22T04:00:06.583Z,100516.61
2023-05-22T04:00:35.122Z,100517.88
2023-05-22T04:01:01.209Z,100515.94
2023-05-22T04:01:23.759Z,100517.23
2023-05-22T04:01:46.918Z,100518.02
2023-05-22T04:02:13.302Z,100516.83
2023-05-22T04:02:39.061Z,100514.48
2023-05-22T04:03:01.488Z,100514.23
2023-05-22T04:03:23.630Z,100515.54
2023-05-22T04:03:45.762Z,100520.11
2023-05-22T04:04:07.550Z,100516.77
2023-05-22T04:04:34.223Z,100513.89
2023-05-22T04:04:56.280Z,100515.13
2023-05-22T04:05:19.088Z,100516.09
2023-05-22T04:05:41.028Z,100518.98
2023-05-22T04:06:03.652Z,100519.02
2023-05-22T04:06:25.921Z,100516.55
2023-05-22T04:06:47.709Z,100518.58
2023-05-22T04:07:09.439Z,100518.03
2023-05-22T04:07:32.714Z,100518.30
2023-05-22T04:07:54.596Z,100519.34
2023-05-22T04:08:16.406Z,100518.27
2023-05-22T04:08:38.463Z,100519.92
2023-05-22T04:09:00.565Z,100518.00
2023-05-22T04:09:22.347Z,100518.25
2023-05-22T04:09:44.102Z,100520.98
2023-05-22T04:10:06.510Z,100519.96
2023-05-22T04:10:28.415Z,100521.16
2023-05-22T04:10:50.414Z,100520.30
2023-05-22T04:11:15.972Z,100519.90
2023-05-22T04:11:42.707Z,100518.88
2023-05-22T04:12:04.965Z,100522.74
2023-05-22T04:12:26.850Z,100521.34
2023-05-22T04:12:48.637Z,100523.98
2023-05-22T04:13:10.418Z,100520.77
2023-05-22T04:13:33.321Z,100519.20
2023-05-22T04:13:55.625Z,100519.83
2023-05-22T04:14:18.783Z,100521.11
2023-05-22T04:14:41.217Z,100521.61
2023-05-22T04:15:03.234Z,100525.73
2023-05-22T04:15:25.630Z,100519.78
2023-05-22T04:15:47.603Z,100524.02
2023-05-22T04:16:09.992Z,100525.79
2023-05-22T04:16:33.640Z,100523.70
2023-05-22T04:16:55.634Z,100525.46
2023-05-22T04:17:17.508Z,100525.59
2023-05-22T04:17:39.838Z,100521.47
2023-05-22T04:18:01.806Z,100524.28
2023-05-22T04:18:23.794Z,100525.61
2023-05-22T04:18:45.714Z,100523.15
2023-05-22T04:19:09.880Z,100527.64
2023-05-22T04:19:31.959Z,100522.84
2023-05-22T04:19:53.772Z,100521.45
2023-05-22T04:20:15.683Z,100521.66
2023-05-22T04:20:38.097Z,100522.44
2023-05-22T04:21:00.238Z,100524.72
2023-05-22T04:21:23.788Z,100523.70
2023-05-22T04:21:45.599Z,100521.46
2023-05-22T04:22:07.469Z,100519.58
2023-05-22T04:22:31.095Z,100521.31
2023-05-22T04:22:54.552Z,100523.62
2023-05-22T04:23:16.422Z,100525.63
2023-05-22T04:23:38.714Z,100528.71
2023-05-22T04:24:01.923Z,100523.11
2023-05-22T04:24:27.690Z,100524.39
2023-05-22T04:24:50.316Z,100524.64
2023-05-22T04:25:12.610Z,100522.89
2023-05-22T04:25:37.336Z,100527.84
2023-05-22T04:26:02.588Z,100525.33